sensor_id;sensor_type;location;lat;lon;timestamp;P1;durP1;ratioP1;P2;durP2;ratioP2
25687;SDS011;17407;51.120;3.702;2022-10-17T00:10:58;15.23;;;10.35;;
25687;SDS011;17407;51.120;3.702;2022-10-17T00:14:07;15.13;;;9.23;;
25687;SDS011;17407;51.120;3.702;2022-10-17T00:17:17;14.07;;;9.68;;
25687;SDS011;17407;51.120;3.702;2022-10-17T00:20:27;12.38;;;8.93;;
25687;SDS011;17407;51.120;3.702;2022-10-17T00:23:37;13.15;;;8.85;;
25687;SDS011;17407;51.120;3.702;2022-10-17T00:26:46;13.65;;;9.02;;
25687;SDS011;17407;51.120;3.702;2022-10-17T00:29:55;12.77;;;10.15;;
25687;SDS011;17407;51.120;3.702;2022-10-17T00:33:04;12.93;;;10.48;;
25687;SDS011;17407;51.120;3.702;2022-10-17T00:36:16;16.13;;;10.52;;
25687;SDS011;17407;51.120;3.702;2022-10-17T00:39:25;15.38;;;10.90;;
25687;SDS011;17407;51.120;3.702;2022-10-17T00:42:35;12.35;;;8.95;;
25687;SDS011;17407;51.120;3.702;2022-10-17T00:45:45;11.65;;;9.43;;
25687;SDS011;17407;51.120;3.702;2022-10-17T00:48:54;12.25;;;9.02;;
25687;SDS011;17407;51.120;3.702;2022-10-17T00:52:05;14.82;;;9.45;;
25687;SDS011;17407;51.120;3.702;2022-10-17T00:55:21;14.52;;;9.02;;
25687;SDS011;17407;51.120;3.702;2022-10-17T00:58:31;13.85;;;8.73;;
25687;SDS011;17407;51.120;3.702;2022-10-17T01:01:40;11.07;;;8.23;;
25687;SDS011;17407;51.120;3.702;2022-10-17T01:08:34;18.42;;;8.38;;
25687;SDS011;17407;51.120;3.702;2022-10-17T01:11:46;9.32;;;7.03;;
25687;SDS011;17407;51.120;3.702;2022-10-17T01:21:43;11.18;;;7.03;;
25687;SDS011;17407;51.120;3.702;2022-10-17T01:34:36;10.25;;;7.03;;
25687;SDS011;17407;51.120;3.702;2022-10-17T01:38:03;7.35;;;6.65;;
25687;SDS011;17407;51.120;3.702;2022-10-17T01:41:22;9.05;;;7.40;;
25687;SDS011;17407;51.120;3.702;2022-10-17T01:47:43;9.80;;;7.22;;
25687;SDS011;17407;51.120;3.702;2022-10-17T01:51:09;10.18;;;6.80;;
25687;SDS011;17407;51.120;3.702;2022-10-17T01:54:31;6.82;;;6.03;;
25687;SDS011;17407;51.120;3.702;2022-10-17T01:57:42;11.43;;;7.82;;
25687;SDS011;17407;51.120;3.702;2022-10-17T02:00:53;7.97;;;6.82;;
25687;SDS011;17407;51.120;3.702;2022-10-17T02:03:41;9.40;;;6.55;;
25687;SDS011;17407;51.120;3.702;2022-10-17T02:06:09;10.30;;;6.93;;
25687;SDS011;17407;51.120;3.702;2022-10-17T02:08:45;12.10;;;7.55;;
25687;SDS011;17407;51.120;3.702;2022-10-17T02:11:17;9.68;;;7.20;;
25687;SDS011;17407;51.120;3.702;2022-10-17T02:20:40;8.50;;;6.88;;
25687;SDS011;17407;51.120;3.702;2022-10-17T02:27:08;12.07;;;7.07;;
25687;SDS011;17407;51.120;3.702;2022-10-17T02:30:12;9.80;;;7.03;;
25687;SDS011;17407;51.120;3.702;2022-10-17T02:33:11;8.88;;;6.53;;
25687;SDS011;17407;51.120;3.702;2022-10-17T03:25:27;6.35;;;5.72;;
25687;SDS011;17407;51.120;3.702;2022-10-17T03:28:37;10.80;;;6.50;;
25687;SDS011;17407;51.120;3.702;2022-10-17T03:31:47;17.67;;;7.68;;
25687;SDS011;17407;51.120;3.702;2022-10-17T03:34:56;11.70;;;8.02;;
25687;SDS011;17407;51.120;3.702;2022-10-17T03:38:05;12.43;;;8.25;;
25687;SDS011;17407;51.120;3.702;2022-10-17T03:41:14;8.98;;;7.13;;
25687;SDS011;17407;51.120;3.702;2022-10-17T03:44:23;7.95;;;7.15;;
25687;SDS011;17407;51.120;3.702;2022-10-17T03:47:33;12.60;;;10.10;;
25687;SDS011;17407;51.120;3.702;2022-10-17T03:50:42;9.75;;;7.32;;
25687;SDS011;17407;51.120;3.702;2022-10-17T03:53:52;8.60;;;5.80;;
25687;SDS011;17407;51.120;3.702;2022-10-17T03:57:02;7.60;;;6.57;;
25687;SDS011;17407;51.120;3.702;2022-10-17T04:00:11;7.70;;;6.82;;
25687;SDS011;17407;51.120;3.702;2022-10-17T06:01:45;15.68;;;8.48;;
25687;SDS011;17407;51.120;3.702;2022-10-17T06:04:11;14.77;;;8.65;;
25687;SDS011;17407;51.120;3.702;2022-10-17T06:06:37;17.77;;;9.60;;
25687;SDS011;17407;51.120;3.702;2022-10-17T06:09:03;11.45;;;9.20;;
25687;SDS011;17407;51.120;3.702;2022-10-17T06:11:29;19.50;;;10.10;;
25687;SDS011;17407;51.120;3.702;2022-10-17T06:13:54;15.35;;;9.88;;
25687;SDS011;17407;51.120;3.702;2022-10-17T06:16:20;15.52;;;8.60;;
25687;SDS011;17407;51.120;3.702;2022-10-17T06:18:46;11.77;;;9.32;;
25687;SDS011;17407;51.120;3.702;2022-10-17T06:21:12;14.07;;;8.25;;
25687;SDS011;17407;51.120;3.702;2022-10-17T06:23:41;9.30;;;7.35;;
25687;SDS011;17407;51.120;3.702;2022-10-17T06:26:06;16.48;;;8.43;;
25687;SDS011;17407;51.120;3.702;2022-10-17T06:28:32;14.88;;;8.38;;
25687;SDS011;17407;51.120;3.702;2022-10-17T06:30:58;11.75;;;7.53;;
25687;SDS011;17407;51.120;3.702;2022-10-17T06:33:28;12.63;;;7.45;;
25687;SDS011;17407;51.120;3.702;2022-10-17T06:35:54;15.98;;;8.82;;
25687;SDS011;17407;51.120;3.702;2022-10-17T06:38:21;15.15;;;8.95;;
25687;SDS011;17407;51.120;3.702;2022-10-17T07:12:20;11.30;;;7.90;;
25687;SDS011;17407;51.120;3.702;2022-10-17T07:15:29;13.63;;;8.02;;
25687;SDS011;17407;51.120;3.702;2022-10-17T07:18:38;11.77;;;7.90;;
25687;SDS011;17407;51.120;3.702;2022-10-17T07:21:48;13.43;;;7.40;;
25687;SDS011;17407;51.120;3.702;2022-10-17T07:24:57;12.23;;;7.47;;
25687;SDS011;17407;51.120;3.702;2022-10-17T07:28:07;13.00;;;7.35;;
25687;SDS011;17407;51.120;3.702;2022-10-17T07:31:17;11.93;;;7.72;;
25687;SDS011;17407;51.120;3.702;2022-10-17T07:34:26;13.55;;;8.38;;
25687;SDS011;17407;51.120;3.702;2022-10-17T07:37:37;18.88;;;9.60;;
25687;SDS011;17407;51.120;3.702;2022-10-17T07:40:52;18.50;;;9.55;;
25687;SDS011;17407;51.120;3.702;2022-10-17T07:44:01;16.58;;;9.55;;
25687;SDS011;17407;51.120;3.702;2022-10-17T07:47:11;14.90;;;9.30;;
25687;SDS011;17407;51.120;3.702;2022-10-17T07:53:49;11.68;;;8.40;;
25687;SDS011;17407;51.120;3.702;2022-10-17T07:56:58;11.65;;;8.75;;
25687;SDS011;17407;51.120;3.702;2022-10-17T08:00:07;10.93;;;8.23;;
25687;SDS011;17407;51.120;3.702;2022-10-17T08:03:16;11.18;;;8.88;;
25687;SDS011;17407;51.120;3.702;2022-10-17T08:05:42;10.63;;;8.77;;
25687;SDS011;17407;51.120;3.702;2022-10-17T09:32:17;12.05;;;7.38;;
25687;SDS011;17407;51.120;3.702;2022-10-17T09:35:27;8.88;;;6.53;;
25687;SDS011;17407;51.120;3.702;2022-10-17T09:38:39;7.93;;;7.13;;
25687;SDS011;17407;51.120;3.702;2022-10-17T09:41:50;10.65;;;7.43;;
25687;SDS011;17407;51.120;3.702;2022-10-17T09:48:22;10.80;;;7.28;;
25687;SDS011;17407;51.120;3.702;2022-10-17T09:51:33;11.02;;;7.80;;
25687;SDS011;17407;51.120;3.702;2022-10-17T09:54:49;11.90;;;7.03;;
25687;SDS011;17407;51.120;3.702;2022-10-17T10:46:35;9.25;;;6.63;;
25687;SDS011;17407;51.120;3.702;2022-10-17T10:49:45;12.73;;;7.38;;
25687;SDS011;17407;51.120;3.702;2022-10-17T10:56:08;9.02;;;5.60;;
25687;SDS011;17407;51.120;3.702;2022-10-17T11:02:39;7.25;;;5.00;;
25687;SDS011;17407;51.120;3.702;2022-10-17T11:06:18;9.02;;;5.50;;
25687;SDS011;17407;51.120;3.702;2022-10-17T11:13:14;6.65;;;5.47;;
25687;SDS011;17407;51.120;3.702;2022-10-17T11:16:13;5.35;;;4.85;;
25687;SDS011;17407;51.120;3.702;2022-10-17T11:19:36;9.63;;;5.32;;
25687;SDS011;17407;51.120;3.702;2022-10-17T11:22:48;6.68;;;4.90;;
25687;SDS011;17407;51.120;3.702;2022-10-17T11:25:58;5.45;;;4.95;;
25687;SDS011;17407;51.120;3.702;2022-10-17T11:29:11;6.88;;;5.00;;
25687;SDS011;17407;51.120;3.702;2022-10-17T11:32:33;10.00;;;4.80;;
25687;SDS011;17407;51.120;3.702;2022-10-17T11:35:45;7.97;;;4.60;;
25687;SDS011;17407;51.120;3.702;2022-10-17T11:42:06;9.02;;;4.63;;
25687;SDS011;17407;51.120;3.702;2022-10-17T12:29:19;7.28;;;4.90;;
25687;SDS011;17407;51.120;3.702;2022-10-17T12:32:32;9.00;;;5.82;;
25687;SDS011;17407;51.120;3.702;2022-10-17T12:35:41;5.75;;;4.28;;
25687;SDS011;17407;51.120;3.702;2022-10-17T12:39:39;6.43;;;4.35;;
25687;SDS011;17407;51.120;3.702;2022-10-17T12:42:30;5.75;;;4.45;;
25687;SDS011;17407;51.120;3.702;2022-10-17T12:45:47;7.47;;;4.47;;
25687;SDS011;17407;51.120;3.702;2022-10-17T12:49:01;8.82;;;4.10;;
25687;SDS011;17407;51.120;3.702;2022-10-17T12:52:15;7.90;;;3.97;;
25687;SDS011;17407;51.120;3.702;2022-10-17T12:55:25;8.30;;;4.40;;
25687;SDS011;17407;51.120;3.702;2022-10-17T12:58:35;6.68;;;4.43;;
25687;SDS011;17407;51.120;3.702;2022-10-17T13:01:45;7.43;;;4.40;;
25687;SDS011;17407;51.120;3.702;2022-10-17T13:05:18;7.25;;;4.22;;
25687;SDS011;17407;51.120;3.702;2022-10-17T13:08:37;7.25;;;4.18;;
25687;SDS011;17407;51.120;3.702;2022-10-17T13:11:48;7.00;;;4.10;;
25687;SDS011;17407;51.120;3.702;2022-10-17T13:14:58;7.80;;;3.95;;
25687;SDS011;17407;51.120;3.702;2022-10-17T13:18:12;9.60;;;4.50;;
25687;SDS011;17407;51.120;3.702;2022-10-17T13:21:26;5.10;;;3.83;;
25687;SDS011;17407;51.120;3.702;2022-10-17T13:24:37;7.93;;;3.88;;
25687;SDS011;17407;51.120;3.702;2022-10-17T13:38:39;4.55;;;3.50;;
25687;SDS011;17407;51.120;3.702;2022-10-17T13:41:49;8.98;;;3.47;;
25687;SDS011;17407;51.120;3.702;2022-10-17T13:45:00;6.13;;;3.58;;
25687;SDS011;17407;51.120;3.702;2022-10-17T13:48:16;7.80;;;3.63;;
25687;SDS011;17407;51.120;3.702;2022-10-17T13:51:26;4.90;;;3.80;;
25687;SDS011;17407;51.120;3.702;2022-10-17T13:54:51;7.33;;;3.67;;
25687;SDS011;17407;51.120;3.702;2022-10-17T14:01:39;7.88;;;3.55;;
25687;SDS011;17407;51.120;3.702;2022-10-17T14:05:08;4.43;;;3.60;;
25687;SDS011;17407;51.120;3.702;2022-10-17T14:08:18;4.55;;;3.63;;
25687;SDS011;17407;51.120;3.702;2022-10-17T14:11:34;7.00;;;4.18;;
25687;SDS011;17407;51.120;3.702;2022-10-17T14:14:48;6.65;;;3.80;;
25687;SDS011;17407;51.120;3.702;2022-10-17T14:18:01;5.43;;;3.42;;
25687;SDS011;17407;51.120;3.702;2022-10-17T14:21:14;6.10;;;3.60;;
25687;SDS011;17407;51.120;3.702;2022-10-17T14:24:27;7.30;;;4.10;;
25687;SDS011;17407;51.120;3.702;2022-10-17T14:27:50;6.75;;;3.85;;
25687;SDS011;17407;51.120;3.702;2022-10-17T14:31:11;4.68;;;3.85;;
25687;SDS011;17407;51.120;3.702;2022-10-17T14:48:45;8.05;;;6.30;;
25687;SDS011;17407;51.120;3.702;2022-10-17T14:55:26;21.83;;;13.00;;
25687;SDS011;17407;51.120;3.702;2022-10-17T14:58:36;17.77;;;9.95;;
25687;SDS011;17407;51.120;3.702;2022-10-17T15:01:46;13.70;;;7.05;;
25687;SDS011;17407;51.120;3.702;2022-10-17T15:05:10;6.30;;;4.90;;
25687;SDS011;17407;51.120;3.702;2022-10-17T15:08:20;5.15;;;3.53;;
25687;SDS011;17407;51.120;3.702;2022-10-17T15:11:31;9.43;;;4.20;;
25687;SDS011;17407;51.120;3.702;2022-10-17T15:14:40;7.82;;;4.43;;
25687;SDS011;17407;51.120;3.702;2022-10-17T15:17:49;7.22;;;3.72;;
25687;SDS011;17407;51.120;3.702;2022-10-17T15:20:59;6.95;;;3.05;;
25687;SDS011;17407;51.120;3.702;2022-10-17T15:24:09;8.40;;;3.97;;
25687;SDS011;17407;51.120;3.702;2022-10-17T15:27:22;5.05;;;3.40;;
25687;SDS011;17407;51.120;3.702;2022-10-17T15:30:33;4.28;;;3.58;;
25687;SDS011;17407;51.120;3.702;2022-10-17T15:33:44;6.47;;;3.35;;
25687;SDS011;17407;51.120;3.702;2022-10-17T15:36:54;7.90;;;3.17;;
25687;SDS011;17407;51.120;3.702;2022-10-17T15:40:04;5.45;;;3.40;;
25687;SDS011;17407;51.120;3.702;2022-10-17T15:43:13;4.50;;;3.10;;
25687;SDS011;17407;51.120;3.702;2022-10-17T15:46:23;4.93;;;3.17;;
25687;SDS011;17407;51.120;3.702;2022-10-17T15:49:33;5.47;;;3.63;;
25687;SDS011;17407;51.120;3.702;2022-10-17T15:52:43;5.70;;;3.88;;
25687;SDS011;17407;51.120;3.702;2022-10-17T15:55:51;4.93;;;3.45;;
25687;SDS011;17407;51.120;3.702;2022-10-17T15:59:09;5.47;;;3.50;;
25687;SDS011;17407;51.120;3.702;2022-10-17T16:02:21;4.15;;;3.50;;
25687;SDS011;17407;51.120;3.702;2022-10-17T16:05:45;5.22;;;3.75;;
25687;SDS011;17407;51.120;3.702;2022-10-17T16:08:55;6.53;;;3.95;;
25687;SDS011;17407;51.120;3.702;2022-10-17T16:15:34;7.43;;;4.05;;
25687;SDS011;17407;51.120;3.702;2022-10-17T16:18:44;10.20;;;5.45;;
25687;SDS011;17407;51.120;3.702;2022-10-17T16:21:55;7.18;;;4.47;;
25687;SDS011;17407;51.120;3.702;2022-10-17T16:25:05;8.07;;;5.47;;
25687;SDS011;17407;51.120;3.702;2022-10-17T16:28:14;9.10;;;5.05;;
25687;SDS011;17407;51.120;3.702;2022-10-17T16:31:27;9.13;;;5.63;;
25687;SDS011;17407;51.120;3.702;2022-10-17T16:34:39;9.40;;;5.55;;
25687;SDS011;17407;51.120;3.702;2022-10-17T16:37:48;7.72;;;5.55;;
25687;SDS011;17407;51.120;3.702;2022-10-17T16:40:57;8.82;;;5.40;;
25687;SDS011;17407;51.120;3.702;2022-10-17T16:44:09;7.80;;;5.45;;
25687;SDS011;17407;51.120;3.702;2022-10-17T17:20:10;11.35;;;7.75;;
25687;SDS011;17407;51.120;3.702;2022-10-17T17:23:20;13.95;;;9.43;;
25687;SDS011;17407;51.120;3.702;2022-10-17T17:26:30;10.57;;;8.23;;
25687;SDS011;17407;51.120;3.702;2022-10-17T17:29:41;9.13;;;7.13;;
25687;SDS011;17407;51.120;3.702;2022-10-17T17:32:51;8.95;;;5.90;;
25687;SDS011;17407;51.120;3.702;2022-10-17T17:36:01;9.40;;;6.25;;
25687;SDS011;17407;51.120;3.702;2022-10-17T17:39:11;9.10;;;5.90;;
25687;SDS011;17407;51.120;3.702;2022-10-17T17:42:21;11.20;;;7.63;;
25687;SDS011;17407;51.120;3.702;2022-10-17T17:45:31;10.05;;;7.72;;
25687;SDS011;17407;51.120;3.702;2022-10-17T17:48:41;7.75;;;6.45;;
25687;SDS011;17407;51.120;3.702;2022-10-17T17:55:08;12.15;;;7.75;;
25687;SDS011;17407;51.120;3.702;2022-10-17T17:58:18;8.68;;;7.57;;
25687;SDS011;17407;51.120;3.702;2022-10-17T18:01:31;7.30;;;6.38;;
25687;SDS011;17407;51.120;3.702;2022-10-17T18:04:54;11.18;;;7.65;;
25687;SDS011;17407;51.120;3.702;2022-10-17T18:08:03;10.93;;;9.07;;
25687;SDS011;17407;51.120;3.702;2022-10-17T18:11:13;10.57;;;8.52;;
25687;SDS011;17407;51.120;3.702;2022-10-17T18:14:23;11.00;;;7.50;;
25687;SDS011;17407;51.120;3.702;2022-10-17T18:28:11;13.05;;;9.20;;
25687;SDS011;17407;51.120;3.702;2022-10-17T18:31:21;10.52;;;8.60;;
25687;SDS011;17407;51.120;3.702;2022-10-17T18:34:30;13.25;;;8.98;;
25687;SDS011;17407;51.120;3.702;2022-10-17T18:37:41;11.65;;;9.13;;
25687;SDS011;17407;51.120;3.702;2022-10-17T18:41:00;13.05;;;8.57;;
25687;SDS011;17407;51.120;3.702;2022-10-17T18:44:10;13.20;;;9.15;;
25687;SDS011;17407;51.120;3.702;2022-10-17T18:47:19;14.35;;;9.38;;
25687;SDS011;17407;51.120;3.702;2022-10-17T18:50:30;13.07;;;9.43;;
25687;SDS011;17407;51.120;3.702;2022-10-17T18:53:43;12.52;;;9.27;;
25687;SDS011;17407;51.120;3.702;2022-10-17T18:56:53;16.70;;;11.00;;
25687;SDS011;17407;51.120;3.702;2022-10-17T19:00:03;15.30;;;11.27;;
